createdAt,value
2022-09-06T00:01:23.452Z,63.12
2022-09-06T00:03:51.978Z,63.92
2022-09-06T00:06:21.426Z,62.84
2022-09-06T00:08:49.839Z,63.03
2022-09-06T00:11:18.790Z,63.96
2022-09-06T00:13:47.158Z,63.65
2022-09-06T00:16:17.117Z,65.03
2022-09-06T00:18:47.086Z,64.20
2022-09-06T00:21:17.449Z,63.65
2022-09-06T00:23:45.511Z,64.95
2022-09-06T00:26:13.741Z,64.22
2022-09-06T00:28:41.969Z,63.65
2022-09-06T00:31:11.422Z,63.79
2022-09-06T00:33:39.482Z,64.03
2022-09-06T00:36:09.267Z,65.63
2022-09-06T00:38:37.871Z,64.29
2022-09-06T00:41:06.429Z,63.88
2022-09-06T00:43:34.570Z,64.79
2022-09-06T00:46:03.779Z,64.13
2022-09-06T00:48:31.966Z,66.08
2022-09-06T00:51:02.426Z,64.28
2022-09-06T00:53:32.198Z,63.88
2022-09-06T00:56:00.357Z,64.08
2022-09-06T00:58:29.040Z,63.96
2022-09-06T01:00:57.120Z,63.30
2022-09-06T01:03:25.847Z,62.94
2022-09-06T01:06:00.236Z,63.06
2022-09-06T01:08:37.698Z,62.81
2022-09-06T01:11:32.402Z,61.91
2022-09-06T01:14:07.145Z,62.05
2022-09-06T01:16:39.945Z,63.68
2022-09-06T01:19:33.657Z,63.59
2022-09-06T01:22:13.060Z,62.00
2022-09-06T01:24:54.815Z,63.14
2022-09-06T01:28:14.311Z,63.40
2022-09-06T01:30:49.269Z,62.37
2022-09-06T01:33:23.050Z,61.48
2022-09-06T01:35:54.753Z,61.83
2022-09-06T01:38:23.044Z,62.01
2022-09-06T01:40:51.077Z,62.13
2022-09-06T01:43:23.818Z,62.52
2022-09-06T01:46:01.388Z,62.80
2022-09-06T01:48:38.692Z,63.94
2022-09-06T01:51:14.291Z,65.37
2022-09-06T01:53:50.610Z,64.53
2022-09-06T01:56:26.831Z,65.62
2022-09-06T01:59:03.296Z,64.49
2022-09-06T02:01:37.114Z,63.56
2022-09-06T02:04:10.303Z,61.89
2022-09-06T02:06:43.445Z,62.00
2022-09-06T02:09:15.116Z,65.07
2022-09-06T02:11:47.237Z,64.66
2022-09-06T02:14:18.310Z,64.41
2022-09-06T02:16:48.860Z,63.66
2022-09-06T02:19:21.399Z,65.29
2022-09-06T02:21:50.799Z,65.35
2022-09-06T02:24:22.407Z,64.39
2022-09-06T02:26:50.758Z,65.36
2022-09-06T02:29:18.972Z,65.09
2022-09-06T02:31:50.641Z,64.82
2022-09-06T02:34:19.954Z,64.62
2022-09-06T02:36:48.361Z,65.12
2022-09-06T02:39:16.433Z,64.73
2022-09-06T02:41:45.798Z,63.84
2022-09-06T02:44:13.811Z,63.20
2022-09-06T02:46:41.845Z,64.19
2022-09-06T02:49:11.246Z,64.05
2022-09-06T02:51:40.394Z,63.78
2022-09-06T02:54:08.590Z,64.33
2022-09-06T02:56:37.038Z,64.70
2022-09-06T02:59:05.683Z,63.35
2022-09-06T03:01:34.121Z,62.09
2022-09-06T03:04:02.344Z,62.14
2022-09-06T03:06:31.854Z,63.62
2022-09-06T03:09:00.635Z,65.20
2022-09-06T03:11:29.149Z,64.61
2022-09-06T03:13:57.300Z,62.47
2022-09-06T03:16:25.396Z,61.46
2022-09-06T03:18:53.411Z,62.42
2022-09-06T03:21:21.498Z,61.49
2022-09-06T03:23:51.032Z,61.88
2022-09-06T03:26:19.051Z,63.03
2022-09-06T03:28:47.412Z,61.51
2022-09-06T03:31:15.999Z,62.32
2022-09-06T03:33:44.089Z,62.21
2022-09-06T03:36:12.062Z,63.30
2022-09-06T03:38:40.124Z,60.99
2022-09-06T03:41:09.529Z,63.47
2022-09-06T03:43:37.748Z,62.25
2022-09-06T03:46:05.846Z,59.68
2022-09-06T03:48:33.877Z,62.02
2022-09-06T03:51:01.976Z,61.40
2022-09-06T03:53:30.487Z,61.93
2022-09-06T03:55:59.142Z,60.07
2022-09-06T03:58:31.225Z,60.82
2022-09-06T04:01:07.678Z,61.73
2022-09-06T04:03:36.808Z,61.15
2022-09-06T04:06:08.192Z,59.98
2022-09-06T04:08:36.621Z,59.24
2022-09-06T04:11:04.949Z,58.73
2022-09-06T04:13:35.225Z,58.30
2022-09-06T04:16:03.621Z,59.01
2022-09-06T04:18:31.826Z,59.25
2022-09-06T04:20:59.823Z,59.29
2022-09-06T04:23:29.758Z,57.89
2022-09-06T04:25:59.074Z,59.48
2022-09-06T04:28:27.853Z,59.05
2022-09-06T04:31:03.336Z,58.99
2022-09-06T04:33:33.661Z,60.40
2022-09-06T04:36:03.379Z,60.04
2022-09-06T04:38:34.982Z,59.51
2022-09-06T04:41:03.066Z,58.53
2022-09-06T04:43:31.070Z,60.56
2022-09-06T04:46:06.023Z,59.53
2022-09-06T04:48:34.407Z,57.70
2022-09-06T04:51:02.379Z,58.57
2022-09-06T04:53:30.357Z,57.83
2022-09-06T04:55:58.637Z,57.88
2022-09-06T04:58:26.923Z,58.35
2022-09-06T05:00:54.988Z,59.78
2022-09-06T05:03:24.719Z,58.47
2022-09-06T05:05:52.722Z,58.16
2022-09-06T05:08:20.708Z,58.82
2022-09-06T05:10:52.570Z,58.28
2022-09-06T05:13:20.602Z,58.31
2022-09-06T05:15:48.689Z,57.33
2022-09-06T05:18:16.832Z,56.72
2022-09-06T05:20:52.787Z,57.10
2022-09-06T05:23:20.833Z,57.35
2022-09-06T05:25:48.854Z,58.48
2022-09-06T05:28:17.419Z,58.12
2022-09-06T05:30:45.917Z,57.17
2022-09-06T05:33:15.464Z,57.39
2022-09-06T05:35:43.514Z,57.70
2022-09-06T05:38:12.899Z,57.30
2022-09-06T05:40:40.896Z,56.58
2022-09-06T05:43:08.910Z,57.50
2022-09-06T05:45:36.962Z,57.38
2022-09-06T05:48:05.197Z,59.12
2022-09-06T05:50:33.274Z,58.49
2022-09-06T05:53:01.324Z,57.25
2022-09-06T05:55:30.719Z,57.84
2022-09-06T05:57:58.696Z,57.10
2022-09-06T06:00:26.696Z,56.67
2022-09-06T06:02:54.671Z,56.98
2022-09-06T06:05:22.689Z,57.31
2022-09-06T06:07:50.668Z,56.37
2022-09-06T06:10:18.783Z,56.85
2022-09-06T06:12:48.682Z,58.56
2022-09-06T06:15:16.755Z,57.32
2022-09-06T06:17:44.746Z,56.97
2022-09-06T06:20:12.740Z,56.18
2022-09-06T06:23:05.052Z,56.57
2022-09-06T06:25:33.018Z,57.30
2022-09-06T06:28:02.459Z,57.21
2022-09-06T06:30:30.421Z,57.13
2022-09-06T06:32:58.890Z,57.38
2022-09-06T06:35:26.860Z,56.33
2022-09-06T06:37:54.851Z,55.47
2022-09-06T06:40:23.075Z,56.58
2022-09-06T06:42:51.167Z,54.75
2022-09-06T06:45:22.202Z,55.69
2022-09-06T06:47:51.001Z,56.00
2022-09-06T06:50:19.579Z,56.27
2022-09-06T06:52:47.643Z,57.00
2022-09-06T06:55:15.796Z,57.30
2022-09-06T06:57:43.803Z,56.32
2022-09-06T07:00:12.926Z,56.20
2022-09-06T07:02:42.331Z,55.28
2022-09-06T07:07:58.786Z,55.16
2022-09-06T07:10:34.242Z,56.14
2022-09-06T07:13:02.692Z,56.09
2022-09-06T07:15:30.674Z,55.46
2022-09-06T07:18:00.229Z,56.30
2022-09-06T07:20:28.289Z,56.06
2022-09-06T07:25:53.107Z,56.42
2022-09-06T07:28:21.368Z,55.58
2022-09-06T07:30:49.451Z,54.88
2022-09-06T07:33:18.981Z,55.61
2022-09-06T07:35:59.137Z,54.54
2022-09-06T07:38:27.765Z,54.63
2022-09-06T07:40:56.526Z,54.85
2022-09-06T07:43:24.783Z,54.93
2022-09-06T07:46:00.549Z,54.52
2022-09-06T07:48:31.453Z,54.73
2022-09-06T07:51:11.395Z,55.02
2022-09-06T07:53:40.417Z,55.24
2022-09-06T07:56:10.183Z,54.57
2022-09-06T07:58:39.587Z,55.66
2022-09-06T08:01:30.163Z,54.24
2022-09-06T08:04:00.917Z,55.21
2022-09-06T08:06:31.322Z,54.10
2022-09-06T08:09:01.097Z,55.18
2022-09-06T08:11:30.833Z,54.18
2022-09-06T08:14:00.239Z,53.84
2022-09-06T08:16:29.644Z,54.03
2022-09-06T08:19:00.216Z,54.10
2022-09-06T08:21:29.354Z,53.28
2022-09-06T08:23:59.201Z,53.40
2022-09-06T08:26:28.746Z,53.79
2022-09-06T08:28:58.908Z,54.38
2022-09-06T08:31:27.919Z,53.73
2022-09-06T08:33:56.847Z,53.44
2022-09-06T08:36:29.837Z,53.95
2022-09-06T08:38:59.144Z,53.68
2022-09-06T08:41:29.395Z,54.05
2022-09-06T08:46:52.319Z,54.63
2022-09-06T08:49:20.418Z,54.14
2022-09-06T08:52:01.313Z,54.92
2022-09-06T08:54:33.490Z,54.56
2022-09-06T08:57:06.373Z,54.90
2022-09-06T08:59:39.043Z,54.74
2022-09-06T09:02:15.370Z,55.82
2022-09-06T09:04:46.064Z,55.24
2022-09-06T09:07:32.872Z,55.69
2022-09-06T09:10:04.974Z,54.94
2022-09-06T09:12:33.953Z,55.79
2022-09-06T09:15:08.809Z,55.71
2022-09-06T09:17:37.554Z,54.91
2022-09-06T09:20:06.322Z,55.82
2022-09-06T09:22:36.694Z,56.06
2022-09-06T09:25:06.247Z,56.16
2022-09-06T09:27:34.941Z,55.96
2022-09-06T09:32:54.820Z,58.04
2022-09-06T09:35:27.144Z,57.55
2022-09-06T09:38:07.775Z,57.84
2022-09-06T09:40:41.709Z,57.84
2022-09-06T09:43:18.212Z,56.69
2022-09-06T09:45:47.229Z,57.37
2022-09-06T09:48:22.104Z,56.00
2022-09-06T09:50:50.597Z,57.77
2022-09-06T09:53:22.763Z,56.51
2022-09-06T09:55:55.702Z,56.84
2022-09-06T09:58:32.274Z,56.88
2022-09-06T10:01:14.501Z,58.44
2022-09-06T10:09:31.575Z,59.14
2022-09-06T10:12:01.557Z,57.20
2022-09-06T10:14:31.831Z,56.89
2022-09-06T10:17:00.811Z,57.80
2022-09-06T10:19:44.335Z,58.35
2022-09-06T10:22:28.677Z,56.86
2022-09-06T10:25:26.669Z,56.21
2022-09-06T10:28:29.488Z,56.91
2022-09-06T10:31:30.113Z,57.38
2022-09-06T10:34:08.541Z,58.87
2022-09-06T10:36:38.422Z,57.12
2022-09-06T10:39:17.906Z,57.10
2022-09-06T10:41:59.246Z,57.47
2022-09-06T10:44:38.229Z,59.55
2022-09-06T10:47:12.372Z,62.40
2022-09-06T10:49:42.301Z,58.34
2022-09-06T10:52:13.255Z,57.61
2022-09-06T10:54:42.330Z,59.18
2022-09-06T11:00:12.932Z,57.46
2022-09-06T11:02:47.313Z,59.92
2022-09-06T11:11:04.723Z,57.57
2022-09-06T11:13:34.186Z,57.62
2022-09-06T11:16:05.973Z,57.73
2022-09-06T11:18:38.999Z,58.95
2022-09-06T11:21:29.954Z,60.27
2022-09-06T11:24:06.871Z,69.60
2022-09-06T11:26:44.944Z,59.80
2022-09-06T11:29:21.319Z,68.55
2022-09-06T11:34:53.257Z,61.64
2022-09-06T11:37:26.661Z,74.77
2022-09-06T11:43:13.547Z,66.69
2022-09-06T11:45:45.731Z,74.62
2022-09-06T11:48:36.586Z,80.85
2022-09-06T11:51:07.968Z,74.59
2022-09-06T11:53:58.569Z,66.95
2022-09-06T11:56:31.109Z,80.39
2022-09-06T11:59:02.855Z,74.60
2022-09-06T12:01:42.826Z,72.03
2022-09-06T12:04:12.076Z,72.53
2022-09-06T12:06:41.582Z,67.72
2022-09-06T12:09:30.841Z,76.20
2022-09-06T12:11:59.319Z,70.05
2022-09-06T12:14:33.532Z,69.01
2022-09-06T12:17:31.126Z,74.96
2022-09-06T12:20:06.437Z,78.26
2022-09-06T12:22:54.677Z,70.45
2022-09-06T12:25:54.895Z,75.60
2022-09-06T12:28:37.165Z,68.80
2022-09-06T12:31:26.733Z,76.25
2022-09-06T12:33:56.429Z,69.50
2022-09-06T12:36:29.735Z,67.40
2022-09-06T12:38:59.588Z,77.77
2022-09-06T12:41:30.229Z,74.80
2022-09-06T12:44:00.100Z,69.99
2022-09-06T12:46:29.847Z,72.94
2022-09-06T12:49:04.261Z,76.21
2022-09-06T12:51:32.710Z,68.47
2022-09-06T12:54:02.307Z,68.80
2022-09-06T12:56:32.910Z,66.53
2022-09-06T12:59:14.871Z,67.19
2022-09-06T13:01:46.665Z,66.28
2022-09-06T13:04:20.168Z,75.81
2022-09-06T13:06:48.839Z,74.11
2022-09-06T13:09:20.408Z,69.62
2022-09-06T13:11:51.018Z,68.96
2022-09-06T13:14:21.761Z,70.62
2022-09-06T13:16:52.061Z,77.93
2022-09-06T13:19:32.161Z,69.65
2022-09-06T13:22:00.436Z,76.27
2022-09-06T13:24:47.042Z,73.22
2022-09-06T13:27:25.796Z,78.19
2022-09-06T13:29:58.394Z,75.29
2022-09-06T13:32:27.632Z,72.09
2022-09-06T13:34:59.060Z,72.14
2022-09-06T13:37:28.907Z,77.93
2022-09-06T13:39:57.578Z,72.68
2022-09-06T13:42:27.847Z,76.92
2022-09-06T13:45:00.076Z,72.89
2022-09-06T13:47:30.566Z,77.76
2022-09-06T13:50:00.443Z,73.09
2022-09-06T13:52:28.787Z,71.75
2022-09-06T13:54:56.719Z,77.76
2022-09-06T13:57:24.893Z,73.62
2022-09-06T13:59:52.896Z,72.99
2022-09-06T14:02:21.084Z,70.13
2022-09-06T14:04:49.095Z,71.96
2022-09-06T14:07:18.474Z,71.27
2022-09-06T14:09:47.533Z,72.74
2022-09-06T14:12:15.637Z,72.07
2022-09-06T14:14:44.627Z,81.65
2022-09-06T14:17:12.660Z,77.71
2022-09-06T14:19:40.684Z,71.74
2022-09-06T14:22:08.723Z,71.15
2022-09-06T14:24:38.284Z,74.40
2022-09-06T14:27:07.223Z,77.96
2022-09-06T14:29:35.709Z,68.16
2022-09-06T14:32:04.309Z,68.61
2022-09-06T14:34:32.712Z,67.86
2022-09-06T14:37:00.629Z,69.51
2022-09-06T14:39:28.776Z,66.22
2022-09-06T14:41:58.221Z,64.95
2022-09-06T14:44:26.285Z,66.52
2022-09-06T14:46:54.935Z,65.94
2022-09-06T14:49:23.439Z,64.98
2022-09-06T14:51:53.181Z,66.09
2022-09-06T14:54:24.134Z,65.76
2022-09-06T14:56:55.405Z,65.18
2022-09-06T14:59:24.889Z,67.91
2022-09-06T15:01:52.965Z,64.50
2022-09-06T15:04:20.985Z,63.50
2022-09-06T15:06:50.171Z,59.76
2022-09-06T15:09:18.765Z,57.00
2022-09-06T15:11:48.529Z,56.21
2022-09-06T15:14:18.662Z,54.47
2022-09-06T15:16:55.346Z,54.27
2022-09-06T15:19:24.603Z,52.64
2022-09-06T15:21:52.715Z,53.60
2022-09-06T15:24:20.976Z,51.75
2022-09-06T15:26:49.284Z,51.02
2022-09-06T15:29:17.942Z,51.27
2022-09-06T15:31:50.655Z,49.94
2022-09-06T15:34:19.168Z,49.25
2022-09-06T15:36:47.749Z,48.98
2022-09-06T15:39:16.215Z,48.21
2022-09-06T15:41:44.348Z,48.43
2022-09-06T15:44:13.716Z,48.43
2022-09-06T15:46:44.584Z,49.02
2022-09-06T15:49:16.271Z,46.98
2022-09-06T15:51:44.718Z,46.54
2022-09-06T15:54:14.230Z,46.69
2022-09-06T15:56:42.350Z,46.39
2022-09-06T15:59:10.953Z,46.13
2022-09-06T16:01:39.349Z,47.00
2022-09-06T16:04:08.079Z,46.14
2022-09-06T16:06:39.791Z,46.00
2022-09-06T16:09:09.782Z,45.76
2022-09-06T16:11:38.970Z,46.63
2022-09-06T16:14:08.663Z,46.71
2022-09-06T16:16:37.329Z,46.35
2022-09-06T16:19:05.840Z,45.07
2022-09-06T16:21:38.920Z,44.69
2022-09-06T16:24:10.157Z,44.67
2022-09-06T16:26:39.583Z,45.00
2022-09-06T16:29:09.451Z,45.95
2022-09-06T16:31:40.586Z,45.83
2022-09-06T16:34:09.194Z,45.28
2022-09-06T16:36:37.453Z,44.43
2022-09-06T16:39:06.064Z,44.19
2022-09-06T16:41:40.536Z,46.11
2022-09-06T16:44:09.327Z,44.23
2022-09-06T16:46:40.238Z,43.32
2022-09-06T16:49:08.385Z,44.29
2022-09-06T16:51:36.592Z,44.68
2022-09-06T16:54:04.704Z,44.85
2022-09-06T16:56:36.386Z,44.63
2022-09-06T16:59:06.432Z,47.19
2022-09-06T17:01:35.318Z,46.43
2022-09-06T17:04:04.556Z,47.31
2022-09-06T17:06:33.254Z,49.17
2022-09-06T17:09:03.817Z,51.37
2022-09-06T17:11:32.237Z,53.63
2022-09-06T17:14:01.792Z,53.41
2022-09-06T17:16:47.351Z,55.03
2022-09-06T17:19:15.492Z,54.87
2022-09-06T17:21:43.792Z,55.46
2022-09-06T17:24:12.035Z,55.02
2022-09-06T17:26:41.061Z,54.90
2022-09-06T17:29:10.773Z,55.32
2022-09-06T17:31:39.361Z,57.34
2022-09-06T17:34:07.862Z,57.31
2022-09-06T17:36:36.983Z,59.61
2022-09-06T17:39:06.970Z,59.91
2022-09-06T17:41:37.780Z,58.68
2022-09-06T17:44:06.271Z,60.83
2022-09-06T17:46:41.155Z,58.51
2022-09-06T17:49:12.270Z,58.71
2022-09-06T17:51:40.526Z,61.89
2022-09-06T17:54:09.916Z,60.71
2022-09-06T17:56:38.263Z,63.21
2022-09-06T17:59:08.283Z,63.44
2022-09-06T18:01:41.200Z,63.87
2022-09-06T18:04:10.110Z,63.63
2022-09-06T18:06:40.796Z,62.82
2022-09-06T18:09:11.332Z,62.48
2022-09-06T18:11:40.331Z,61.53
2022-09-06T18:14:09.892Z,61.31
2022-09-06T18:16:41.033Z,62.12
2022-09-06T18:19:09.875Z,62.63
2022-09-06T18:21:41.022Z,63.49
2022-09-06T18:24:09.535Z,63.61
2022-09-06T18:26:38.053Z,68.62
2022-09-06T18:29:08.408Z,65.31
2022-09-06T18:31:36.424Z,64.94
2022-09-06T18:34:07.065Z,67.72
2022-09-06T18:36:35.097Z,67.59
2022-09-06T18:39:04.706Z,68.03
2022-09-06T18:41:50.386Z,67.84
2022-09-06T18:44:19.123Z,66.89
2022-09-06T18:46:47.158Z,66.78
2022-09-06T18:49:17.010Z,70.31
2022-09-06T18:51:45.754Z,68.98
2022-09-06T18:54:14.056Z,67.53
2022-09-06T18:56:42.206Z,68.21
2022-09-06T18:59:10.884Z,69.02
2022-09-06T19:01:39.476Z,69.17
2022-09-06T19:04:08.316Z,69.52
2022-09-06T19:06:38.667Z,70.49
2022-09-06T19:09:08.399Z,69.17
2022-09-06T19:11:36.655Z,68.91
2022-09-06T19:14:05.841Z,69.09
2022-09-06T19:16:33.956Z,69.12
2022-09-06T19:19:06.550Z,69.30
2022-09-06T19:21:39.321Z,70.69
2022-09-06T19:24:11.443Z,72.86
2022-09-06T19:26:41.622Z,76.01
2022-09-06T19:29:13.723Z,76.21
2022-09-06T19:31:42.141Z,75.31
2022-09-06T19:34:10.286Z,75.73
2022-09-06T19:36:38.273Z,77.14
2022-09-06T19:39:07.993Z,76.66
2022-09-06T19:41:39.009Z,74.79
2022-09-06T19:44:08.747Z,79.79
2022-09-06T19:46:37.312Z,77.39
2022-09-06T19:49:08.180Z,78.23
2022-09-06T19:51:36.624Z,76.43
2022-09-06T19:54:05.526Z,76.07
2022-09-06T19:56:35.218Z,74.59
2022-09-06T19:59:06.040Z,76.88
2022-09-06T20:01:35.460Z,74.52
2022-09-06T20:04:05.388Z,73.98
2022-09-06T20:06:33.756Z,73.83
2022-09-06T20:09:03.109Z,74.81
2022-09-06T20:11:32.863Z,76.21
2022-09-06T20:14:01.462Z,77.78
2022-09-06T20:16:31.635Z,75.51
2022-09-06T20:19:00.292Z,75.35
2022-09-06T20:21:28.684Z,74.83
2022-09-06T20:23:58.168Z,77.31
2022-09-06T20:26:27.578Z,79.48
2022-09-06T20:28:56.752Z,77.29
2022-09-06T20:31:25.320Z,79.55
2022-09-06T20:33:54.937Z,78.78
2022-09-06T20:36:22.915Z,76.01
2022-09-06T20:38:50.925Z,79.37
2022-09-06T20:41:20.425Z,77.57
2022-09-06T20:43:52.286Z,75.94
2022-09-06T20:46:21.582Z,77.81
2022-09-06T20:48:49.699Z,79.81
2022-09-06T20:51:21.303Z,77.07
2022-09-06T20:53:52.874Z,76.74
2022-09-06T20:56:22.386Z,80.23
2022-09-06T20:58:51.125Z,79.44
2022-09-06T21:01:22.647Z,85.34
2022-09-06T21:03:52.236Z,84.72
2022-09-06T21:06:22.434Z,80.37
2022-09-06T21:08:50.708Z,80.06
2022-09-06T21:11:19.231Z,83.08
2022-09-06T21:13:49.751Z,85.05
2022-09-06T21:16:23.288Z,82.78
2022-09-06T21:18:52.781Z,85.08
2022-09-06T21:21:22.365Z,82.17
2022-09-06T21:23:50.557Z,80.55
2022-09-06T21:26:19.121Z,80.26
2022-09-06T21:28:47.958Z,80.47
2022-09-06T21:31:18.673Z,83.80
2022-09-06T21:33:48.822Z,81.17
2022-09-06T21:36:18.535Z,80.14
2022-09-06T21:38:49.144Z,79.87
2022-09-06T21:41:18.966Z,80.69
2022-09-06T21:43:47.472Z,83.88
2022-09-06T21:46:16.881Z,82.70
2022-09-06T21:48:46.946Z,83.60
2022-09-06T21:51:16.569Z,84.40
2022-09-06T21:53:46.825Z,82.18
2022-09-06T21:56:18.761Z,81.96
2022-09-06T21:58:47.251Z,81.92
2022-09-06T22:01:16.092Z,81.72
2022-09-06T22:03:44.959Z,81.50
2022-09-06T22:06:14.601Z,83.69
2022-09-06T22:08:43.793Z,82.12
2022-09-06T22:11:12.819Z,82.84
2022-09-06T22:13:42.595Z,87.21
2022-09-06T22:16:11.209Z,83.36
2022-09-06T22:18:39.714Z,81.64
2022-09-06T22:21:09.171Z,81.59
2022-09-06T22:23:37.634Z,82.79
2022-09-06T22:26:07.423Z,86.44
2022-09-06T22:28:35.557Z,86.46
2022-09-06T22:31:05.410Z,84.91
2022-09-06T22:33:33.423Z,83.31
2022-09-06T22:36:01.490Z,84.48
2022-09-06T22:38:30.104Z,85.94
2022-09-06T22:40:58.602Z,84.36
2022-09-06T22:43:27.110Z,86.43
2022-09-06T22:45:55.087Z,84.84
2022-09-06T22:48:24.461Z,84.90
2022-09-06T22:50:52.466Z,85.33
2022-09-06T22:53:20.932Z,85.26
2022-09-06T22:55:49.346Z,85.50
2022-09-06T22:58:17.504Z,88.35
2022-09-06T23:00:45.742Z,87.52
2022-09-06T23:03:13.970Z,87.76
2022-09-06T23:05:43.401Z,90.52
2022-09-06T23:08:11.406Z,86.45
2022-09-06T23:10:41.719Z,85.96
2022-09-06T23:13:10.312Z,87.65
2022-09-06T23:15:40.710Z,87.75
2022-09-06T23:18:09.112Z,86.39
2022-09-06T23:20:37.320Z,86.26
2022-09-06T23:23:07.735Z,86.07
2022-09-06T23:25:38.828Z,86.22
2022-09-06T23:28:06.977Z,92.26
2022-09-06T23:30:38.222Z,91.75
2022-09-06T23:33:06.370Z,94.61
2022-09-06T23:35:34.360Z,89.64
2022-09-06T23:38:02.403Z,88.51
2022-09-06T23:40:31.772Z,86.55
2022-09-06T23:42:59.769Z,87.78
2022-09-06T23:45:27.798Z,88.19
2022-09-06T23:47:55.802Z,94.09
2022-09-06T23:50:23.931Z,89.57
2022-09-06T23:52:51.910Z,92.84
2022-09-06T23:55:19.884Z,88.02
2022-09-06T23:57:49.274Z,87.02
